Alex Mcallister — WDG5889 — position and weather

sailwx.info

Track history (hours):
 
Tides and Currents Weather Stations Pressure Air Temp Water Temp Dewpoint Dewpoint Depression Visibility Wind Speed Wind Dir Waves Ship Positions

Alex Mcallister

Owner: McAllister Towing & Transportation Co. Inc, Staten Island, NY. More information available from US FCC via Universal Licensing System and Coast Guard Vessel Documentation Center.

Last reported at 2018-Jan-18 15:00 UTC. Time now 2018-Jan-18 15:38 UTC.
Position N 40°38' W 074°10'.

Length 29 m; draft 4.5 m.

Type: Tug. MMSI: 367551340.

Date/timePositionNaut miles runAvg speedWind from/ knotsBaromVisibWave heightAir tempDewpointWater temp
2018-Jan-18 15:00N 40°38' W 074°10'0 0.0
2018-Jan-18 14:29N 40°38' W 074°10'0 0.0
2018-Jan-18 14:00N 40°38' W 074°10'0 0.0
2018-Jan-18 13:29N 40°38' W 074°10'0 0.0
2018-Jan-18 13:00N 40°38' W 074°10'1 1.9
2018-Jan-18 12:27N 40°39' W 074°11'0 0.1
2018-Jan-18 11:54N 40°39' W 074°11'3 6.6
2018-Jan-18 11:30N 40°39' W 074°08'3 6.9
2018-Jan-18 11:00N 40°38' W 074°03'2 2.2
2018-Jan-18 10:00N 40°40' W 074°05'2 4.3
2018-Jan-18 09:30N 40°38' W 074°03'2 4.4
2018-Jan-18 09:00N 40°36' W 074°02'1 2.1
2018-Jan-18 08:30N 40°37' W 074°03'4 8.7
2018-Jan-18 08:00N 40°39' W 074°08'1 2.1
2018-Jan-18 07:29N 40°38' W 074°10'0 0.0
2018-Jan-18 07:00N 40°38' W 074°10'0 0.0
2018-Jan-18 06:29N 40°38' W 074°10'0 0.0
2018-Jan-18 05:59N 40°38' W 074°10'0 0.0
2018-Jan-18 05:30N 40°38' W 074°10'1 2.7
2018-Jan-18 05:00N 40°39' W 074°08'1 1.1
2018-Jan-18 04:29N 40°39' W 074°09'2 4.3
2018-Jan-18 04:00N 40°41' W 074°08'0 0.8
2018-Jan-18 03:30N 40°41' W 074°08'3 4.8
2018-Jan-18 02:59N 40°39' W 074°10'4 9.2
2018-Jan-18 02:30N 40°35' W 074°13'2 4.0
2018-Jan-18 02:00N 40°33' W 074°14'0 0.1
2018-Jan-18 01:29N 40°33' W 074°14'3 5.4
2018-Jan-18 01:00N 40°36' W 074°12'3 3.4
2018-Jan-17 23:59N 40°38' W 074°10'0 0.0
2018-Jan-17 23:56N 40°38' W 074°10'  
2018-Jan-12 14:56N 40°37' W 074°12'3 7.1
2018-Jan-12 14:29N 40°38' W 074°09'3 5.6
2018-Jan-12 14:00N 40°39' W 074°05'2 4.2
2018-Jan-12 13:31N 40°39' W 074°08'3 5.1
2018-Jan-12 13:00N 40°41' W 074°08'0 0.4
2018-Jan-12 12:30N 40°41' W 074°08'0 0.1
2018-Jan-12 12:00N 40°41' W 074°08'3 6.4
2018-Jan-12 11:30N 40°39' W 074°11'4 7.8
2018-Jan-12 11:00N 40°35' W 074°13'0 0.1
2018-Jan-12 09:52N 40°35' W 074°13'1 1.4
2018-Jan-12 09:29N 40°35' W 074°13'3 1.7
2018-Jan-12 07:48N 40°32' W 074°15'2 8.1
2018-Jan-12 07:30N 40°34' W 074°13'1 0.3
2018-Jan-12 03:35N 40°35' W 074°12'0 1.2
2018-Jan-12 03:30N 40°35' W 074°12'1 1.3
2018-Jan-12 03:00N 40°36' W 074°12'4 1.0
2018-Jan-11 23:17N 40°39' W 074°08'2 6.9
2018-Jan-11 22:58N 40°39' W 074°06'3 5.8
2018-Jan-11 22:30N 40°37' W 074°03'2 4.3
2018-Jan-11 22:00N 40°39' W 074°04'4 7.7
2018-Jan-11 21:28N 40°38' W 074°10'0 0.0
2018-Jan-11 21:00N 40°38' W 074°10'0 0.0
2018-Jan-11 20:30N 40°38' W 074°10'0 0.0
2018-Jan-11 19:57N 40°38' W 074°10'0 0.0
2018-Jan-11 19:29N 40°38' W 074°10'1 2.9
2018-Jan-11 19:00N 40°40' W 074°09'0 0.3
2018-Jan-11 18:31N 40°40' W 074°09'2 3.4
2018-Jan-11 18:00N 40°39' W 074°07'3 5.5
2018-Jan-11 17:29N 40°37' W 074°03'0 0.6
2018-Jan-11 17:00N 40°37' W 074°04'0 0.7
2018-Jan-11 16:30N 40°37' W 074°03'1 1.9
2018-Jan-11 16:00N 40°38' W 074°04'4 7.5
2018-Jan-11 15:30N 40°39' W 074°08'1 0.2
2018-Jan-11 12:07N 40°39' W 074°09'1 6.0
2018-Jan-11 11:55N 40°40' W 074°08'0 0.5
2018-Jan-11 11:29N 40°40' W 074°09'2 3.8
2018-Jan-11 10:51N 40°39' W 074°06'2 5.8
2018-Jan-11 10:30N 40°38' W 074°03'1 1.5
2018-Jan-11 09:59N 40°37' W 074°03'1 1.2
2018-Jan-11 09:30N 40°38' W 074°04'4 2.0
2018-Jan-11 07:20N 40°39' W 074°09'2 4.1
2018-Jan-11 06:58N 40°40' W 074°08'0 0.0
2018-Jan-11 06:30N 40°40' W 074°08'0 0.0
2018-Jan-11 05:59N 40°40' W 074°08'0 0.0
2018-Jan-11 05:30N 40°40' W 074°08'0 0.0
2018-Jan-11 05:00N 40°40' W 074°08'0 0.0
2018-Jan-11 04:29N 40°40' W 074°08'0 0.0
2018-Jan-11 03:31N 40°40' W 074°08'0 0.4
2018-Jan-11 03:30N 40°40' W 074°08'1 1.0
2018-Jan-11 03:00N 40°40' W 074°08'2 3.5
2018-Jan-11 02:30N 40°39' W 074°07'1 1.3
2018-Jan-11 01:57N 40°39' W 074°06'2 3.0
2018-Jan-11 01:21N 40°39' W 074°08'1 0.3
2018-Jan-10 19:38N 40°40' W 074°09'2 4.9
2018-Jan-10 19:15N 40°38' W 074°10'0 0.0
2018-Jan-10 18:48N 40°38' W 074°10'0 0.0
2018-Jan-10 18:21N 40°38' W 074°10'1 2.0
2018-Jan-10 17:49N 40°39' W 074°08'1 2.1
2018-Jan-10 17:30N 40°39' W 074°09'1 1.8
2018-Jan-10 16:42N 40°41' W 074°08'2 3.6
2018-Jan-10 16:03N 40°39' W 074°10'0 0.7
2018-Jan-10 15:36N 40°39' W 074°10'1 7.8
2018-Jan-10 15:28N 40°39' W 074°09'1 1.7
2018-Jan-10 14:59N 40°40' W 074°08'2 1.6
2018-Jan-10 13:28N 40°39' W 074°05'2 3.7
2018-Jan-10 13:00N 40°38' W 074°03'1 1.5
2018-Jan-10 12:30N 40°39' W 074°03'1 3.0
2018-Jan-10 12:00N 40°40' W 074°05'1 1.7
2018-Jan-10 11:30N 40°39' W 074°04'4 3.5
2018-Jan-10 10:22N 40°39' W 074°10'3 6.1
2018-Jan-10 09:55N 40°39' W 074°06'2 4.1
2018-Jan-10 09:30N 40°40' W 074°04'0 0.0
2018-Jan-10 09:00N 40°40' W 074°04'0 0.0
2018-Jan-10 08:30N 40°40' W 074°04'0 0.0
2018-Jan-10 08:00N 40°40' W 074°04'0 0.0
2018-Jan-10 07:30N 40°40' W 074°04'0 0.0
2018-Jan-10 07:00N 40°40' W 074°04'0 0.0
2018-Jan-10 06:30N 40°40' W 074°04'3 4.8
2018-Jan-10 05:47N 40°40' W 074°09'1 0.9
2018-Jan-10 04:13N 40°41' W 074°09'0 0.0
2018-Jan-10 04:00N 40°41' W 074°09'0 0.0
2018-Jan-10 03:27N 40°41' W 074°09'0 0.0
2018-Jan-10 03:00N 40°41' W 074°09'0 0.0
2018-Jan-10 02:29N 40°41' W 074°09'0 0.0
2018-Jan-10 01:34N 40°41' W 074°09'0 3.9
2018-Jan-10 01:30N 40°41' W 074°09'2 1.8
2018-Jan-10 00:12N 40°38' W 074°09'0 0.2
2018-Jan-09 23:59N 40°38' W 074°09'1 2.0
2018-Jan-09 23:30N 40°39' W 074°09'1 2.6
2018-Jan-09 23:00N 40°41' W 074°09'0 0.8
2018-Jan-09 22:30N 40°41' W 074°08'3 2.6
2018-Jan-09 21:28N 40°39' W 074°05'3 5.6
2018-Jan-09 20:57N 40°37' W 074°03'0 1.0
2018-Jan-09 20:30N 40°37' W 074°03'4 8.2
2018-Jan-09 19:59N 40°39' W 074°08'1 0.0
2018-Jan-09 01:35N 40°39' W 074°09'111.5
2018-Jan-09 01:30N 40°40' W 074°08'1 1.0
2018-Jan-09 00:57N 40°41' W 074°08'2 3.5
2018-Jan-09 00:22N 40°39' W 074°08'3 5.2
2018-Jan-08 23:50N 40°39' W 074°05'2 6.1
2018-Jan-08 23:30N 40°38' W 074°03'1 1.0
2018-Jan-08 23:00N 40°37' W 074°03'2 4.1
2018-Jan-08 22:30N 40°39' W 074°03'2 1.4
2018-Jan-08 21:06N 40°37' W 074°03'1 6.8
2018-Jan-08 20:59N 40°36' W 074°03'4 8.4
2018-Jan-08 20:30N 40°40' W 074°05'1 2.9
2018-Jan-08 20:00N 40°39' W 074°05'  
Track history (hours):
 
Tides and Currents Weather Stations Pressure Air Temp Water Temp Dewpoint Dewpoint Depression Visibility Wind Speed Wind Dir Waves Ship Positions

Alex Mcallister

Owner: McAllister Towing & Transportation Co. Inc, Staten Island, NY. More information available from US FCC via Universal Licensing System and Coast Guard Vessel Documentation Center.

Last reported at 2018-Jan-18 15:00 UTC. Time now 2018-Jan-18 15:38 UTC.
Position N 40°38' W 074°10'.

Length 29 m; draft 4.5 m.

Type: Tug. MMSI: 367551340.

Date/timePositionNaut miles runAvg speedWind from/ knotsBaromVisibWave heightAir tempDewpointWater temp
2018-Jan-18 15:00N 40°38' W 074°10'0 0.0
2018-Jan-18 14:29N 40°38' W 074°10'0 0.0
2018-Jan-18 14:00N 40°38' W 074°10'0 0.0
2018-Jan-18 13:29N 40°38' W 074°10'0 0.0
2018-Jan-18 13:00N 40°38' W 074°10'1 1.9
2018-Jan-18 12:27N 40°39' W 074°11'0 0.1
2018-Jan-18 11:54N 40°39' W 074°11'3 6.6
2018-Jan-18 11:30N 40°39' W 074°08'3 6.9
2018-Jan-18 11:00N 40°38' W 074°03'2 2.2
2018-Jan-18 10:00N 40°40' W 074°05'2 4.3
2018-Jan-18 09:30N 40°38' W 074°03'2 4.4
2018-Jan-18 09:00N 40°36' W 074°02'1 2.1
2018-Jan-18 08:30N 40°37' W 074°03'4 8.7
2018-Jan-18 08:00N 40°39' W 074°08'1 2.1
2018-Jan-18 07:29N 40°38' W 074°10'0 0.0
2018-Jan-18 07:00N 40°38' W 074°10'0 0.0
2018-Jan-18 06:29N 40°38' W 074°10'0 0.0
2018-Jan-18 05:59N 40°38' W 074°10'0 0.0
2018-Jan-18 05:30N 40°38' W 074°10'1 2.7
2018-Jan-18 05:00N 40°39' W 074°08'1 1.1
2018-Jan-18 04:29N 40°39' W 074°09'2 4.3
2018-Jan-18 04:00N 40°41' W 074°08'0 0.8
2018-Jan-18 03:30N 40°41' W 074°08'3 4.8
2018-Jan-18 02:59N 40°39' W 074°10'4 9.2
2018-Jan-18 02:30N 40°35' W 074°13'2 4.0
2018-Jan-18 02:00N 40°33' W 074°14'0 0.1
2018-Jan-18 01:29N 40°33' W 074°14'3 5.4
2018-Jan-18 01:00N 40°36' W 074°12'3 3.4
2018-Jan-17 23:59N 40°38' W 074°10'0 0.0
2018-Jan-17 23:56N 40°38' W 074°10'  
2018-Jan-12 14:56N 40°37' W 074°12'3 7.1
2018-Jan-12 14:29N 40°38' W 074°09'3 5.6
2018-Jan-12 14:00N 40°39' W 074°05'2 4.2
2018-Jan-12 13:31N 40°39' W 074°08'3 5.1
2018-Jan-12 13:00N 40°41' W 074°08'0 0.4
2018-Jan-12 12:30N 40°41' W 074°08'0 0.1
2018-Jan-12 12:00N 40°41' W 074°08'3 6.4
2018-Jan-12 11:30N 40°39' W 074°11'4 7.8
2018-Jan-12 11:00N 40°35' W 074°13'0 0.1
2018-Jan-12 09:52N 40°35' W 074°13'1 1.4
2018-Jan-12 09:29N 40°35' W 074°13'3 1.7
2018-Jan-12 07:48N 40°32' W 074°15'2 8.1
2018-Jan-12 07:30N 40°34' W 074°13'1 0.3
2018-Jan-12 03:35N 40°35' W 074°12'0 1.2
2018-Jan-12 03:30N 40°35' W 074°12'1 1.3
2018-Jan-12 03:00N 40°36' W 074°12'4 1.0
2018-Jan-11 23:17N 40°39' W 074°08'2 6.9
2018-Jan-11 22:58N 40°39' W 074°06'3 5.8
2018-Jan-11 22:30N 40°37' W 074°03'2 4.3
2018-Jan-11 22:00N 40°39' W 074°04'4 7.7
2018-Jan-11 21:28N 40°38' W 074°10'0 0.0
2018-Jan-11 21:00N 40°38' W 074°10'0 0.0
2018-Jan-11 20:30N 40°38' W 074°10'0 0.0
2018-Jan-11 19:57N 40°38' W 074°10'0 0.0
2018-Jan-11 19:29N 40°38' W 074°10'1 2.9
2018-Jan-11 19:00N 40°40' W 074°09'0 0.3
2018-Jan-11 18:31N 40°40' W 074°09'2 3.4
2018-Jan-11 18:00N 40°39' W 074°07'3 5.5
2018-Jan-11 17:29N 40°37' W 074°03'0 0.6
2018-Jan-11 17:00N 40°37' W 074°04'0 0.7
2018-Jan-11 16:30N 40°37' W 074°03'1 1.9
2018-Jan-11 16:00N 40°38' W 074°04'4 7.5
2018-Jan-11 15:30N 40°39' W 074°08'1 0.2
2018-Jan-11 12:07N 40°39' W 074°09'1 6.0
2018-Jan-11 11:55N 40°40' W 074°08'0 0.5
2018-Jan-11 11:29N 40°40' W 074°09'2 3.8
2018-Jan-11 10:51N 40°39' W 074°06'2 5.8
2018-Jan-11 10:30N 40°38' W 074°03'1 1.5
2018-Jan-11 09:59N 40°37' W 074°03'1 1.2
2018-Jan-11 09:30N 40°38' W 074°04'4 2.0
2018-Jan-11 07:20N 40°39' W 074°09'2 4.1
2018-Jan-11 06:58N 40°40' W 074°08'0 0.0
2018-Jan-11 06:30N 40°40' W 074°08'0 0.0
2018-Jan-11 05:59N 40°40' W 074°08'0 0.0
2018-Jan-11 05:30N 40°40' W 074°08'0 0.0
2018-Jan-11 05:00N 40°40' W 074°08'0 0.0
2018-Jan-11 04:29N 40°40' W 074°08'0 0.0
2018-Jan-11 03:31N 40°40' W 074°08'0 0.4
2018-Jan-11 03:30N 40°40' W 074°08'1 1.0
2018-Jan-11 03:00N 40°40' W 074°08'2 3.5
2018-Jan-11 02:30N 40°39' W 074°07'1 1.3
2018-Jan-11 01:57N 40°39' W 074°06'2 3.0
2018-Jan-11 01:21N 40°39' W 074°08'1 0.3
2018-Jan-10 19:38N 40°40' W 074°09'2 4.9
2018-Jan-10 19:15N 40°38' W 074°10'0 0.0
2018-Jan-10 18:48N 40°38' W 074°10'0 0.0
2018-Jan-10 18:21N 40°38' W 074°10'1 2.0
2018-Jan-10 17:49N 40°39' W 074°08'1 2.1
2018-Jan-10 17:30N 40°39' W 074°09'1 1.8
2018-Jan-10 16:42N 40°41' W 074°08'2 3.6
2018-Jan-10 16:03N 40°39' W 074°10'0 0.7
2018-Jan-10 15:36N 40°39' W 074°10'1 7.8
2018-Jan-10 15:28N 40°39' W 074°09'1 1.7
2018-Jan-10 14:59N 40°40' W 074°08'2 1.6
2018-Jan-10 13:28N 40°39' W 074°05'2 3.7
2018-Jan-10 13:00N 40°38' W 074°03'1 1.5
2018-Jan-10 12:30N 40°39' W 074°03'1 3.0
2018-Jan-10 12:00N 40°40' W 074°05'1 1.7
2018-Jan-10 11:30N 40°39' W 074°04'4 3.5
2018-Jan-10 10:22N 40°39' W 074°10'3 6.1
2018-Jan-10 09:55N 40°39' W 074°06'2 4.1
2018-Jan-10 09:30N 40°40' W 074°04'0 0.0
2018-Jan-10 09:00N 40°40' W 074°04'0 0.0
2018-Jan-10 08:30N 40°40' W 074°04'0 0.0
2018-Jan-10 08:00N 40°40' W 074°04'0 0.0
2018-Jan-10 07:30N 40°40' W 074°04'0 0.0
2018-Jan-10 07:00N 40°40' W 074°04'0 0.0
2018-Jan-10 06:30N 40°40' W 074°04'3 4.8
2018-Jan-10 05:47N 40°40' W 074°09'1 0.9
2018-Jan-10 04:13N 40°41' W 074°09'0 0.0
2018-Jan-10 04:00N 40°41' W 074°09'0 0.0
2018-Jan-10 03:27N 40°41' W 074°09'0 0.0
2018-Jan-10 03:00N 40°41' W 074°09'0 0.0
2018-Jan-10 02:29N 40°41' W 074°09'0 0.0
2018-Jan-10 01:34N 40°41' W 074°09'0 3.9
2018-Jan-10 01:30N 40°41' W 074°09'2 1.8
2018-Jan-10 00:12N 40°38' W 074°09'0 0.2
2018-Jan-09 23:59N 40°38' W 074°09'1 2.0
2018-Jan-09 23:30N 40°39' W 074°09'1 2.6
2018-Jan-09 23:00N 40°41' W 074°09'0 0.8
2018-Jan-09 22:30N 40°41' W 074°08'3 2.6
2018-Jan-09 21:28N 40°39' W 074°05'3 5.6
2018-Jan-09 20:57N 40°37' W 074°03'0 1.0
2018-Jan-09 20:30N 40°37' W 074°03'4 8.2
2018-Jan-09 19:59N 40°39' W 074°08'1 0.0
2018-Jan-09 01:35N 40°39' W 074°09'111.5
2018-Jan-09 01:30N 40°40' W 074°08'1 1.0
2018-Jan-09 00:57N 40°41' W 074°08'2 3.5
2018-Jan-09 00:22N 40°39' W 074°08'3 5.2
2018-Jan-08 23:50N 40°39' W 074°05'2 6.1
2018-Jan-08 23:30N 40°38' W 074°03'1 1.0
2018-Jan-08 23:00N 40°37' W 074°03'2 4.1
2018-Jan-08 22:30N 40°39' W 074°03'2 1.4
2018-Jan-08 21:06N 40°37' W 074°03'1 6.8
2018-Jan-08 20:59N 40°36' W 074°03'4 8.4
2018-Jan-08 20:30N 40°40' W 074°05'1 2.9
2018-Jan-08 20:00N 40°39' W 074°05'  

Dump ship's entire track history